Date,TemperatureHighF,TemperatureAvgF,TemperatureLowF,DewpointHighF,DewpointAvgF,DewpointLowF,HumidityHigh,HumidityAvg,HumidityLow,PressureMaxIn,PressureMinIn,WindSpeedMaxMPH,WindSpeedAvgMPH,GustSpeedMaxMPH,PrecipitationSumIn
2013-1-1,46.8,36.1,24.8,27.2,23.1,17.8,76,60,40,30.09,29.98,9,2,9,0.00
2013-1-2,50.8,38.2,27.7,29.0,24.3,19.3,71,58,42,29.99,29.89,13,4,13,0.00
2013-1-3,48.6,38.1,30.2,33.6,27.4,22.1,76,66,49,30.08,29.90,19,7,19,0.00
2013-1-4,48.2,37.6,30.6,31.3,28.0,23.9,80,69,51,30.14,30.05,13,4,14,0.00
2013-1-5,55.4,39.1,25.9,32.3,24.1,18.5,82,58,24,30.17,30.10,8,3,8,0.00
2013-1-6,58.7,45.4,35.8,27.1,22.2,15.7,52,40,28,30.10,29.85,17,8,17,0.00
2013-1-7,56.0,43.2,32.8,25.8,22.2,14.8,67,45,20,29.86,29.71,14,4,14,0.00
2013-1-8,58.7,45.5,36.9,28.2,24.2,18.0,63,45,24,29.99,29.76,14,5,14,0.00
2013-1-9,59.9,42.5,33.5,24.6,20.1,17.3,57,42,21,30.12,29.98,13,5,13,0.00
2013-1-10,64.3,48.1,31.9,25.7,19.0,13.1,56,34,19,29.98,29.77,28,10,28,0.00
2013-1-11,51.1,34.7,27.2,30.7,13.0,8.0,63,41,21,29.89,29.76,33,5,33,0.00
2013-1-12,39.1,29.0,20.2,16.9,9.1,6.8,60,44,28,29.94,29.79,23,4,23,0.00
2013-1-13,45.0,30.4,16.9,14.3,6.2,-2.8,61,39,15,29.93,29.81,14,4,15,0.00
2013-1-14,40.3,27.8,18.4,10.3,4.6,-0.6,58,38,23,29.99,29.84,18,4,18,0.00
2013-1-15,38.3,27.0,16.2,6.8,1.3,-4.9,54,35,17,30.15,29.97,12,4,12,0.00
2013-1-16,52.6,36.4,21.1,10.6,6.3,-0.1,44,30,17,30.18,30.08,15,4,15,0.00
2013-1-17,60.1,46.8,34.0,19.2,13.1,9.3,37,26,18,30.18,30.09,15,8,15,0.00
2013-1-18,63.4,44.9,29.9,21.5,15.9,10.0,49,33,18,30.16,30.05,13,3,13,0.00
2013-1-19,68.6,49.2,35.6,29.7,22.7,13.8,55,37,18,30.16,30.07,8,3,8,0.00
2013-1-20,69.8,53.9,40.0,35.1,28.4,21.7,54,39,26,30.12,29.99,11,4,11,0.00
2013-1-21,69.7,53.9,42.5,35.8,31.1,27.0,58,43,27,30.08,29.99,11,4,11,0.00
2013-1-22,70.4,52.8,41.2,35.2,29.6,24.4,63,44,22,30.14,30.06,11,3,11,0.00
2013-1-23,73.1,56.8,43.0,33.9,29.7,25.5,56,38,22,30.19,30.09,12,4,12,0.00
2013-1-24,68.6,57.5,50.8,40.1,35.9,30.6,57,45,30,30.18,30.10,9,2,9,0.00
2013-1-25,72.9,60.0,48.6,45.5,41.3,37.6,68,52,34,30.16,29.98,18,4,21,0.00
2013-1-26,66.2,58.1,50.2,51.1,45.0,38.6,85,63,37,30.00,29.89,32,8,32,0.22
2013-1-27,63.4,53.7,47.5,48.0,43.0,38.1,88,69,46,29.98,29.90,15,4,15,0.13
2013-1-28,53.6,47.3,34.6,42.6,35.9,25.1,86,65,48,29.91,29.81,39,10,39,0.12
2013-1-29,44.3,36.9,30.2,30.8,22.9,18.0,90,59,36,30.02,29.84,30,9,30,0.02
2013-1-30,50.4,38.7,29.3,24.3,18.6,9.6,70,47,21,30.16,30.02,14,5,14,0.00
2013-1-31,61.0,44.6,32.0,30.6,24.4,19.2,64,47,25,30.10,30.02,11,3,11,0.00
2013-2-1,68.0,50.1,35.1,30.2,25.8,21.1,62,41,19,30.15,30.05,8,3,8,0.00
2013-2-2,69.8,54.2,39.1,29.4,23.7,19.5,49,33,16,30.18,30.07,12,3,12,0.00
2013-2-3,65.7,52.8,46.8,42.0,30.0,21.3,64,43,26,30.09,29.94,20,3,20,0.00
2013-2-4,67.5,52.7,39.4,40.8,36.0,31.6,75,55,33,29.98,29.90,11,2,11,0.00
2013-2-5,69.5,52.8,41.0,41.6,34.9,29.7,75,54,25,29.99,29.88,15,4,15,0.00
2013-2-6,66.4,50.7,40.0,39.7,33.3,28.4,75,54,25,29.99,29.86,16,5,16,0.00
2013-2-7,68.0,50.8,37.1,37.6,30.8,24.3,75,49,23,30.04,29.93,12,3,12,0.00
2013-2-8,64.1,52.6,39.8,26.5,18.2,3.4,53,30,10,29.93,29.73,34,14,34,0.00
2013-2-9,48.6,42.2,30.6,31.8,22.3,16.1,74,46,32,29.92,29.68,36,12,36,0.00
2013-2-10,57.1,39.3,26.1,25.7,13.8,-0.2,69,41,10,29.93,29.82,18,4,19,0.00
2013-2-11,50.8,38.6,28.8,31.7,19.3,9.2,90,49,31,29.98,29.82,26,6,26,0.00
2013-2-12,48.8,34.5,22.7,28.5,21.5,15.2,90,62,30,30.07,29.97,11,4,11,0.01
2013-2-13,60.7,40.7,25.6,24.2,18.1,10.7,67,44,17,30.05,29.95,9,3,9,0.00
2013-2-14,62.5,45.6,29.3,24.7,19.2,15.4,61,37,18,30.05,29.94,12,4,13,0.00
2013-2-15,67.5,49.9,38.9,27.6,17.4,2.0,52,31,7,30.17,30.02,16,4,16,0.00
2013-2-16,72.9,51.4,37.4,19.7,13.0,7.7,37,23,10,30.19,29.97,17,6,17,0.00
2013-2-17,69.5,52.0,35.6,15.6,8.6,1.1,36,19,7,29.98,29.82,25,5,25,0.00
2013-2-18,68.8,51.9,35.3,18.5,11.0,5.4,37,21,8,29.99,29.89,14,4,14,0.00
2013-2-19,60.8,51.5,41.9,38.2,22.7,9.6,58,34,21,29.90,29.63,41,15,41,0.00
2013-2-20,47.9,39.1,32.0,34.4,25.6,10.5,84,61,22,29.80,29.58,38,15,42,0.17
2013-2-21,56.7,37.0,24.1,31.6,25.3,17.9,79,64,34,29.89,29.79,12,3,14,0.04
2013-2-22,56.5,42.1,30.1,33.8,28.7,22.7,80,61,29,30.03,29.84,16,4,16,0.00
2013-2-23,65.5,45.6,28.1,33.4,23.5,12.5,78,49,15,30.00,29.78,19,4,19,0.00
2013-2-24,50.4,42.2,31.7,21.2,11.1,-5.5,44,29,11,29.94,29.71,41,11,41,0.00
2013-2-25,64.4,40.8,27.2,15.0,10.5,3.8,49,31,12,30.03,29.92,14,4,14,0.00
2013-2-26,63.7,42.8,27.0,20.6,11.3,3.3,58,32,8,29.97,29.83,22,5,22,0.00
2013-2-27,64.4,45.6,30.6,14.1,10.4,3.4,45,26,10,30.08,29.97,10,4,10,0.00
2013-2-28,71.3,47.3,32.0,12.0,5.8,-1.2,37,20,5,30.20,30.04,15,5,15,0.00
2013-3-1,74.5,52.3,34.6,17.2,10.6,3.2,33,20,10,30.20,30.12,11,4,11,0.00
2013-3-2,90.7,60.0,40.7,26.8,17.6,7.7,39,21,3,30.24,30.08,13,4,13,0.00
2013-3-3,78.7,60.4,44.1,23.0,15.0,5.7,33,17,2,30.10,29.92,26,4,26,0.00
2013-3-4,71.3,61.8,45.0,32.6,19.9,2.3,43,21,5,30.04,29.86,34,11,34,0.00
2013-3-5,75.2,58.9,41.9,29.8,24.7,17.1,51,30,12,30.07,29.98,19,6,19,0.00
2013-3-6,80.8,63.0,50.8,31.8,23.2,17.7,32,23,10,30.01,29.91,22,5,22,0.00
2013-3-7,73.8,59.9,45.4,31.4,23.8,17.8,44,27,13,29.96,29.88,20,5,20,0.00
2013-3-8,58.3,51.0,41.4,43.7,35.6,22.7,73,57,30,29.92,29.76,44,13,44,0.56
2013-3-9,52.6,42.7,35.1,34.7,29.4,25.5,77,60,38,29.97,29.83,34,6,34,0.00
2013-3-10,59.8,45.8,35.6,34.9,30.1,23.0,82,57,28,30.07,29.94,16,4,16,0.00
2013-3-11,79.9,52.4,35.8,34.7,25.6,10.5,71,41,10,30.08,29.96,13,4,13,0.00
2013-3-12,90.4,57.9,38.2,33.9,25.6,15.1,59,34,10,30.07,29.97,9,3,10,0.00
2013-3-13,92.9,64.1,47.2,28.4,22.9,17.9,41,24,8,30.13,30.04,11,4,11,0.00
2013-3-14,97.7,65.9,47.0,32.0,22.2,15.1,42,21,4,30.14,30.04,9,3,9,0.00
2013-3-15,87.1,68.4,49.0,26.8,19.8,10.5,32,16,2,30.07,29.96,21,6,21,0.00
2013-3-16,84.4,65.7,46.4,23.9,16.9,7.0,34,16,3,29.97,29.82,30,6,30,0.00
2013-3-17,76.0,63.7,50.6,22.3,16.5,5.6,27,17,10,29.95,29.85,27,6,27,0.00
2013-3-18,78.3,62.6,45.4,33.0,21.9,14.0,47,24,10,30.00,29.91,21,5,21,0.00
2013-3-19,76.0,60.2,45.7,32.7,24.6,14.2,48,28,13,30.04,29.92,23,6,24,0.00
2013-3-20,83.3,64.1,48.2,32.8,26.6,17.6,45,27,10,30.04,29.89,19,5,20,0.00
2013-3-21,76.3,62.6,47.3,32.1,22.1,11.5,45,24,6,29.90,29.78,24,5,24,0.00
2013-3-22,75.2,63.7,53.6,32.1,24.9,15.3,38,24,11,29.84,29.73,28,8,28,0.00
2013-3-23,72.4,58.5,43.7,30.3,18.1,9.0,47,24,7,29.96,29.82,27,6,27,0.00
2013-3-24,74.7,57.1,40.7,18.5,11.5,1.5,37,18,6,29.97,29.84,19,5,19,0.00
2013-3-25,80.8,58.2,42.8,19.1,12.3,4.2,27,17,6,29.99,29.89,17,4,17,0.00
2013-3-26,84.2,66.3,45.4,21.8,16.0,10.5,32,15,5,29.99,29.89,24,7,24,0.00
2013-3-27,82.1,65.7,48.8,27.6,19.4,11.3,34,19,8,30.01,29.91,22,6,24,0.00
2013-3-28,80.1,66.2,47.5,35.9,24.5,15.5,46,23,8,30.06,29.97,18,5,18,0.00
2013-3-29,83.3,67.3,49.3,31.3,22.6,12.4,40,20,8,30.10,30.00,17,4,17,0.00
2013-3-30,83.9,65.4,52.2,23.1,18.2,13.0,27,17,6,30.07,29.95,26,4,27,0.00
2013-3-31,83.2,67.2,51.3,28.7,22.9,16.0,36,20,8,30.05,29.94,22,5,22,0.00
2013-4-1,82.8,63.8,46.1,30.4,21.7,16.4,39,22,5,30.01,29.89,24,5,25,0.00
2013-4-2,76.9,60.2,44.1,28.3,19.7,11.9,45,23,2,29.97,29.85,22,6,22,0.00
2013-4-3,76.5,61.8,46.4,27.6,19.1,9.4,38,21,7,30.04,29.93,17,5,17,0.00
2013-4-4,88.0,67.1,49.0,30.9,21.3,11.6,37,19,5,30.09,29.97,16,5,16,0.00
2013-4-5,88.9,68.3,49.9,26.4,20.4,14.2,29,17,7,30.01,29.91,26,5,26,0.00
2013-4-6,85.5,66.9,50.8,34.2,26.6,19.4,44,24,10,29.99,29.89,21,5,21,0.00
2013-4-7,85.1,66.6,48.4,35.0,26.2,20.1,48,25,10,29.92,29.79,20,5,24,0.00
2013-4-8,75.2,64.5,52.9,37.6,31.1,17.7,47,30,17,29.79,29.49,54,21,54,0.00
2013-4-9,60.1,50.9,44.1,38.4,29.4,20.4,74,45,25,29.86,29.56,48,11,51,0.06
2013-4-10,65.9,53.4,36.4,29.4,22.8,18.5,58,32,18,29.96,29.84,22,7,23,0.00
2013-4-11,81.7,59.4,37.8,29.2,20.2,14.8,49,25,7,29.96,29.79,13,4,15,0.00
2013-4-12,82.3,62.1,47.2,27.5,21.1,16.8,35,23,10,29.87,29.76,16,5,19,0.00
2013-4-13,84.6,68.0,49.3,28.1,22.2,17.6,37,20,8,29.88,29.79,27,6,27,0.00
2013-4-14,87.5,67.5,51.1,30.5,25.1,17.2,37,22,11,29.84,29.77,23,7,24,0.00
2013-4-15,87.5,69.6,55.1,35.4,26.3,14.8,38,21,10,29.84,29.76,25,10,25,0.00
2013-4-16,82.4,68.3,55.3,41.7,26.5,13.0,49,24,7,29.86,29.77,36,13,39,0.00
2013-4-17,69.3,59.5,45.7,36.0,22.1,7.9,45,25,12,29.96,29.73,36,14,39,0.00
2013-4-18,72.9,54.5,39.2,13.2,7.6,-0.4,28,16,5,30.08,29.93,17,5,18,0.00
2013-4-19,87.5,61.5,38.0,24.2,9.2,-2.0,25,11,1,30.11,29.95,18,4,18,0.00
2013-4-20,81.2,63.0,41.4,19.5,8.3,-3.0,18,9,2,30.01,29.90,20,5,20,0.00
2013-4-21,90.2,70.0,50.0,26.2,15.2,5.0,21,10,2,30.07,29.97,19,5,19,0.00
2013-4-22,91.3,70.6,49.0,27.2,16.2,5.6,23,11,2,30.02,29.88,18,4,19,0.00
2013-4-23,85.1,63.2,49.3,24.9,15.4,9.7,27,16,6,29.94,29.86,15,3,15,0.00
2013-4-24,91.1,71.2,50.4,28.7,20.6,11.2,32,15,5,29.99,29.90,18,6,19,0.00
2013-4-25,85.3,71.1,56.7,24.5,18.9,11.4,21,14,5,30.05,29.89,35,13,35,0.00
2013-4-26,88.2,66.6,45.5,28.9,19.4,5.5,36,17,1,30.12,30.02,15,4,15,0.00
2013-4-27,89.8,71.1,52.6,26.9,19.9,11.0,29,14,5,30.10,29.95,12,4,12,0.00
2013-4-28,90.9,74.0,55.6,26.9,19.4,9.1,25,11,2,29.98,29.85,10,4,12,0.00
2013-4-29,91.1,75.3,58.1,27.1,17.1,6.5,16,9,2,29.92,29.79,19,5,19,0.00
2013-4-30,91.4,76.2,56.9,27.4,21.0,12.7,23,12,4,29.90,29.82,25,6,26,0.00
2013-5-1,87.1,72.9,56.5,25.1,20.2,12.2,26,14,5,30.05,29.87,19,5,19,0.00
2013-5-2,82.6,69.5,57.2,32.8,22.3,8.6,27,18,10,30.14,30.01,24,7,24,0.00
2013-5-3,88.6,67.7,51.3,25.2,19.1,12.7,30,17,6,30.12,29.89,22,8,22,0.00
2013-5-4,86.2,70.9,53.1,33.3,22.7,12.3,28,17,8,29.90,29.81,22,6,22,0.00
2013-5-5,87.3,73.1,62.5,33.3,26.6,13.1,29,19,7,29.96,29.87,24,9,25,0.00
2013-5-6,81.4,69.0,54.9,40.1,34.5,29.1,46,30,16,30.00,29.93,21,5,21,0.00
2013-5-7,82.3,69.1,51.5,38.9,30.1,22.4,44,25,12,30.00,29.91,19,6,19,0.00
2013-5-8,82.8,66.7,49.9,35.0,27.8,20.6,45,26,12,30.02,29.94,24,5,24,0.00
2013-5-9,83.9,68.5,50.0,40.3,28.4,18.8,49,26,10,29.99,29.91,17,5,17,0.00
2013-5-10,80.8,65.6,53.1,39.5,30.7,21.7,38,28,13,30.08,29.95,20,4,23,0.01
2013-5-11,80.5,67.5,53.1,46.6,36.2,29.9,46,33,22,30.12,30.04,17,5,18,0.03
2013-5-12,82.3,69.8,54.7,45.1,31.9,19.1,46,27,10,30.15,30.02,22,6,22,0.00
2013-5-13,87.1,73.2,57.2,42.9,27.8,13.4,34,20,7,30.14,30.00,22,6,22,0.00
2013-5-14,92.3,75.5,56.5,39.1,31.4,23.0,38,22,10,30.06,29.93,31,4,36,0.00
2013-5-15,89.5,76.4,59.0,38.1,31.1,25.8,36,21,11,30.07,29.95,22,7,22,0.00
2013-5-16,90.7,77.7,56.5,42.7,27.9,17.2,36,18,6,30.00,29.89,18,6,18,0.00
2013-5-17,90.0,76.4,60.1,30.5,24.6,18.8,27,15,5,29.96,29.90,23,7,23,0.00
2013-5-18,86.0,75.0,60.8,34.1,26.4,17.6,31,18,7,29.98,29.91,20,6,20,0.00
2013-5-19,88.4,72.3,51.8,40.6,27.8,14.9,42,22,4,29.97,29.85,20,4,20,0.00
2013-5-20,87.8,70.9,57.2,39.4,23.6,17.6,33,18,7,29.96,29.85,22,7,22,0.00
2013-5-21,90.4,75.9,55.6,35.3,22.0,11.4,25,13,3,29.98,29.86,16,5,20,0.00
2013-5-22,94.0,76.7,56.7,37.4,23.2,11.5,28,14,5,29.91,29.81,18,4,18,0.00
2013-5-23,93.1,77.6,58.5,36.6,24.1,16.7,28,14,3,29.94,29.85,19,6,20,0.00
2013-5-24,93.6,77.0,56.3,42.8,28.1,10.7,41,18,3,30.00,29.93,20,5,20,0.00
2013-5-25,92.0,76.4,55.6,38.7,24.2,11.2,28,15,6,30.01,29.95,19,6,19,0.00
2013-5-26,92.9,76.6,54.4,29.3,21.8,13.9,26,12,3,30.01,29.95,22,6,22,0.00
2013-5-27,93.1,76.6,55.4,38.2,23.9,9.4,28,13,2,29.97,29.84,19,4,19,0.00
2013-5-28,90.7,75.8,54.9,32.1,20.6,6.4,26,12,3,29.87,29.74,23,6,23,0.00
2013-5-29,88.6,74.6,55.1,40.1,29.3,21.2,38,21,8,29.85,29.78,21,4,21,0.00
2013-5-30,93.2,77.4,58.5,50.5,34.9,25.9,55,25,8,29.93,29.84,17,5,19,0.00
2013-5-31,95.6,79.0,60.7,52.8,37.8,28.0,53,26,7,29.97,29.87,17,4,18,0.00
2013-6-1,99.5,82.7,65.5,45.2,34.6,23.3,36,20,5,29.95,29.85,14,5,14,0.00
2013-6-2,101.9,84.5,65.9,46.3,33.6,22.2,38,18,6,29.93,29.84,19,6,19,0.00
2013-6-3,96.8,81.2,61.9,42.6,30.4,23.8,38,17,5,29.95,29.88,22,5,22,0.00
2013-6-4,97.2,81.2,62.6,46.5,34.0,27.4,39,20,7,29.97,29.91,22,6,22,0.00
2013-6-5,97.7,81.2,61.4,46.0,30.4,14.0,39,16,1,29.98,29.87,17,4,17,0.00
2013-6-6,97.9,77.5,64.8,37.0,23.1,15.0,26,13,2,29.93,29.84,14,4,14,0.00
2013-6-7,100.8,84.8,64.8,34.6,26.9,19.1,25,12,3,29.93,29.80,14,4,15,0.00
2013-6-8,98.5,84.3,65.9,39.6,28.4,19.9,29,13,3,29.95,29.87,21,6,22,0.00
2013-6-9,97.6,84.4,65.5,44.0,29.0,18.9,32,13,4,30.01,29.92,18,5,18,0.00
2013-6-10,101.9,86.3,67.1,38.8,28.6,20.3,28,12,5,30.02,29.92,16,4,16,0.00
2013-6-11,103.0,86.2,66.4,39.2,29.8,20.3,28,12,3,30.01,29.92,26,5,26,0.00
2013-6-12,102.8,87.6,69.1,41.5,29.8,21.6,29,12,5,30.04,29.92,17,5,17,0.00
2013-6-13,97.7,85.3,67.3,51.0,36.6,25.3,43,20,10,30.03,29.91,21,5,21,0.00
2013-6-14,96.7,79.4,67.3,60.1,49.2,38.7,54,35,23,29.99,29.89,19,4,19,0.02
2013-6-15,97.6,82.1,65.2,58.4,51.6,44.1,55,36,20,30.02,29.93,20,5,20,0.00
2013-6-16,98.8,82.9,66.4,58.4,45.0,27.8,54,31,11,30.05,29.94,18,5,18,0.00
2013-6-17,99.2,84.8,66.6,45.3,30.6,17.4,33,15,6,30.02,29.92,20,5,20,0.00
2013-6-18,101.0,83.6,63.2,39.3,27.3,17.1,34,11,2,29.98,29.88,18,6,19,0.00
2013-6-19,101.2,84.5,64.4,40.9,27.7,14.9,29,12,3,29.91,29.84,23,6,26,0.00
2013-6-20,99.2,82.1,60.7,35.3,26.9,12.5,28,13,2,29.93,29.87,22,6,23,0.00
2013-6-21,99.0,83.1,65.2,44.6,34.1,25.8,38,19,5,29.98,29.90,25,5,25,0.00
2013-6-22,97.4,82.9,67.5,41.5,30.5,17.3,33,16,5,29.97,29.87,26,6,26,0.00
2013-6-23,97.0,81.5,61.7,40.8,31.4,25.2,34,18,8,29.94,29.84,26,6,26,0.00
2013-6-24,96.1,84.4,68.9,41.2,34.5,26.6,31,18,12,29.97,29.87,21,8,21,0.00
2013-6-25,98.1,84.5,65.2,47.1,30.7,18.0,40,15,5,30.02,29.94,19,6,19,0.00
2013-6-26,97.2,82.3,63.5,43.0,29.0,18.8,33,15,7,30.10,30.00,13,4,13,0.00
2013-6-27,99.9,84.4,66.6,47.4,30.2,19.4,34,15,7,30.12,30.01,15,5,16,0.00
2013-6-28,103.3,87.1,74.2,41.0,31.8,19.9,23,14,6,30.07,29.96,18,5,18,0.00
2013-6-29,102.4,87.3,74.2,45.5,34.9,26.5,25,17,8,30.03,29.89,17,4,17,0.00
2013-6-30,100.1,86.0,70.9,61.0,42.6,33.4,70,25,11,30.04,29.86,24,6,24,0.46
2013-7-1,95.8,83.0,69.7,62.4,55.4,38.7,68,42,17,30.04,29.90,14,3,14,0.00
2013-7-2,95.6,80.7,66.2,61.7,55.3,47.1,74,45,21,30.12,29.94,22,5,22,0.05
2013-7-3,94.9,81.1,68.0,59.2,53.3,46.7,68,42,21,30.04,29.85,26,5,27,0.34
2013-7-4,95.4,81.1,66.8,64.1,56.8,45.6,76,48,20,29.96,29.84,19,4,19,0.00
2013-7-5,93.4,76.6,69.1,63.9,61.3,56.9,78,62,30,29.96,29.88,24,4,24,0.61
2013-7-6,96.5,77.4,65.9,66.1,61.6,53.8,82,61,26,29.93,29.83,25,2,34,0.21
2013-7-7,95.8,79.3,70.2,64.8,60.1,53.9,74,55,27,29.98,29.85,40,4,40,0.86
2013-7-8,95.9,80.1,70.7,65.5,60.7,53.7,71,54,26,30.07,29.94,16,4,18,0.00
2013-7-9,92.3,78.5,68.0,65.4,62.2,56.7,86,61,32,30.09,29.94,50,6,50,0.80
2013-7-10,92.2,77.0,66.1,70.2,64.9,58.8,88,68,42,30.07,29.93,28,3,28,0.47
2013-7-11,88.6,75.6,65.5,68.9,64.2,58.0,90,69,44,30.06,29.92,17,2,17,0.07
2013-7-12,92.0,76.7,66.8,66.0,62.7,57.9,90,64,35,30.02,29.91,11,3,11,0.12
2013-7-13,89.8,78.2,68.8,66.6,61.3,55.8,79,58,35,30.04,29.92,31,4,31,0.08
2013-7-14,93.2,78.1,67.9,65.8,60.0,56.9,79,56,32,30.01,29.89,17,4,17,0.00
2013-7-15,91.8,78.4,67.5,66.3,60.6,54.9,84,55,39,30.00,29.85,22,6,24,0.28
2013-7-16,83.0,71.1,65.7,66.8,63.0,61.0,88,76,56,30.06,29.97,13,4,13,0.82
2013-7-17,88.9,74.5,64.3,65.2,60.9,54.3,89,65,33,30.08,29.98,16,4,16,0.00
2013-7-18,86.2,74.7,65.7,64.5,59.4,56.5,74,60,40,30.06,29.94,15,5,15,0.00
2013-7-19,76.9,70.4,67.0,64.4,61.5,59.1,80,73,62,29.99,29.94,11,3,11,0.02
2013-7-20,82.8,76.0,65.7,67.1,64.3,60.2,84,68,55,29.97,29.89,14,4,14,0.00
2013-7-21,89.1,76.2,64.4,68.6,62.6,59.2,87,65,42,30.02,29.92,14,3,14,0.00
2013-7-22,86.4,75.2,65.9,65.8,61.8,58.5,78,64,45,30.06,29.98,15,3,15,0.02
2013-7-23,87.5,75.9,67.5,65.7,61.6,57.8,79,63,38,30.06,29.95,24,5,24,0.04
2013-7-24,84.1,74.5,66.2,66.9,63.4,60.1,85,70,46,30.04,29.95,14,3,14,0.27
2013-7-25,91.3,76.5,68.4,69.3,64.6,60.3,84,68,43,30.10,29.99,14,4,14,0.00
2013-7-26,91.1,75.0,67.1,69.8,64.5,60.9,84,72,40,30.17,30.07,24,3,24,0.77
2013-7-27,86.8,73.7,66.6,69.3,64.5,60.8,86,74,49,30.11,29.97,14,3,14,0.13
2013-7-28,90.2,78.7,66.6,69.1,61.4,55.2,79,58,33,29.99,29.92,17,3,17,0.00
2013-7-29,91.8,78.1,64.6,65.4,58.4,50.6,78,53,28,30.10,29.97,11,3,13,0.00
2013-7-30,90.4,77.3,66.2,62.6,56.5,52.0,72,50,29,30.17,30.07,19,3,19,0.00
2013-7-31,92.5,79.0,70.6,64.4,60.1,54.8,77,54,35,30.14,30.04,31,4,31,0.45
2013-8-1,81.0,73.1,68.6,67.1,62.4,59.5,79,69,54,30.14,30.02,20,3,24,0.21
2013-8-2,87.1,73.6,65.7,70.0,63.1,56.2,84,71,51,30.07,29.98,24,4,24,0.11
2013-8-3,91.6,76.1,63.7,64.1,60.1,55.4,77,59,36,30.08,29.99,14,3,14,0.00
2013-8-4,86.6,75.4,70.9,66.9,61.3,57.3,72,62,49,30.09,30.00,10,3,11,0.00
2013-8-5,84.1,73.3,61.9,63.7,59.7,54.4,87,64,39,30.14,29.99,29,4,30,1.37
2013-8-6,82.6,69.3,62.3,67.1,60.7,57.3,85,75,53,30.07,30.00,13,2,13,0.05
2013-8-7,84.6,72.3,60.5,65.3,57.2,51.0,87,62,35,30.09,30.00,14,4,14,0.01
2013-8-8,94.7,75.8,62.5,61.1,54.5,47.5,68,49,27,30.05,29.96,9,3,10,0.00
2013-8-9,95.8,78.6,63.4,61.9,52.6,46.0,60,42,26,30.03,29.96,15,4,16,0.00
2013-8-10,93.4,77.5,63.0,59.8,54.7,48.2,63,47,28,30.10,29.99,20,4,20,0.00
2013-8-11,90.2,78.0,65.2,65.8,61.2,56.5,75,57,42,30.08,29.97,13,5,14,0.00
2013-8-12,95.0,81.8,65.3,66.0,59.8,47.6,77,49,30,30.04,29.96,16,5,16,0.00
2013-8-13,96.7,80.9,66.1,62.8,53.3,40.4,57,40,24,30.07,29.96,12,3,12,0.00
2013-8-14,96.3,79.9,68.9,64.4,60.0,57.0,69,53,32,30.05,29.97,23,3,23,0.15
2013-8-15,94.0,81.8,68.4,64.8,59.8,53.6,73,49,29,30.08,29.99,11,3,11,0.00
2013-8-16,96.8,80.8,65.2,66.0,59.6,54.5,76,51,27,30.08,29.99,12,3,12,0.00
2013-8-17,100.3,83.0,67.3,66.4,57.7,49.1,70,45,23,30.09,29.95,14,4,14,0.00
2013-8-18,97.6,80.6,68.2,61.4,55.9,50.0,63,44,23,30.07,29.98,24,4,24,0.20
2013-8-19,92.5,77.5,67.5,63.2,54.9,49.3,68,48,30,30.06,29.95,16,4,16,0.00
2013-8-20,97.6,78.7,68.6,62.7,58.0,51.8,80,52,24,30.08,29.94,20,4,20,0.08
2013-8-21,90.9,76.3,64.4,63.1,59.9,54.5,84,60,34,30.05,29.96,15,3,15,0.03
2013-8-22,97.4,79.4,64.3,64.4,57.1,49.2,78,50,23,30.06,29.93,14,3,14,0.00
2013-8-23,92.2,78.8,65.2,61.3,56.3,52.2,84,49,29,30.03,29.87,19,5,19,0.51
2013-8-24,80.3,70.6,62.6,64.6,61.3,58.1,86,73,56,30.05,29.95,22,5,22,0.23
2013-8-25,86.9,74.2,67.0,68.7,64.3,60.8,85,72,52,30.07,29.98,13,3,13,0.06
2013-8-26,93.1,79.2,67.3,68.1,63.2,56.9,87,61,35,30.06,29.93,17,4,17,0.00
2013-8-27,94.7,78.9,64.8,62.6,57.8,53.4,75,51,29,30.00,29.89,21,5,21,0.00
2013-8-28,87.1,73.6,66.2,64.9,60.1,55.8,73,63,46,30.06,29.94,15,5,15,0.00
2013-8-29,83.5,72.1,67.5,67.0,63.6,60.7,90,75,54,30.14,30.05,11,3,11,0.06
2013-8-30,86.0,74.2,66.2,69.4,62.6,58.2,90,69,42,30.14,30.03,10,2,10,0.01
2013-8-31,90.4,76.4,63.5,63.8,58.7,55.3,76,56,34,30.08,29.95,14,4,15,0.00
2013-9-1,91.8,78.0,65.2,63.5,58.4,54.9,77,53,31,30.02,29.93,20,4,20,0.00
2013-9-2,99.4,77.5,65.5,66.8,59.8,55.6,80,56,32,30.06,29.92,21,3,21,0.87
2013-9-3,89.5,77.1,67.3,64.3,59.2,53.5,72,56,36,30.06,29.96,16,5,16,0.01
2013-9-4,96.1,77.2,64.8,63.4,57.0,53.6,73,52,29,30.07,29.98,16,4,16,0.00
2013-9-5,91.4,76.5,63.5,59.6,55.0,50.7,71,49,29,30.08,29.99,23,4,23,0.00
2013-9-6,91.3,76.0,65.2,61.1,56.6,53.0,76,53,32,30.08,29.95,22,4,22,0.06
2013-9-7,78.8,69.3,65.2,66.3,61.9,58.2,87,77,60,30.07,29.96,8,2,8,0.36
2013-9-8,80.3,71.1,65.5,66.0,62.8,61.0,87,76,59,29.99,29.87,15,3,15,0.11
2013-9-9,76.0,69.0,64.6,65.8,62.9,60.2,89,81,69,29.90,29.84,16,4,16,0.18
2013-9-10,85.0,70.9,61.9,65.1,59.6,54.5,90,70,38,29.99,29.88,12,3,12,0.00
2013-9-11,84.1,71.5,58.9,60.8,55.0,48.4,84,58,32,30.03,29.95,11,3,11,0.00
2013-9-12,90.0,74.3,63.0,63.0,58.1,52.2,83,59,38,29.98,29.86,17,3,18,0.05
2013-9-13,85.7,74.1,61.2,67.6,60.9,56.0,88,66,37,29.92,29.79,15,4,17,0.00
2013-9-14,89.6,76.6,64.4,66.3,60.4,54.8,83,60,33,29.89,29.79,20,4,21,0.00
2013-9-15,91.8,77.7,65.2,63.1,58.2,54.7,72,53,33,29.94,29.84,13,4,14,0.00
2013-9-16,96.5,78.5,64.6,62.6,58.0,54.9,74,51,30,29.99,29.89,17,4,17,0.00
2013-9-17,96.8,78.4,68.0,62.6,57.1,51.2,66,50,29,29.97,29.84,13,5,13,0.00
2013-9-18,92.9,77.5,64.6,61.7,53.5,45.8,68,46,25,29.91,29.80,12,4,12,0.00
2013-9-19,94.5,77.7,63.9,54.3,47.8,43.7,57,37,21,29.91,29.81,10,4,10,0.00
2013-9-20,90.2,74.0,63.5,63.1,55.0,44.0,70,53,35,29.99,29.88,17,5,17,0.35
2013-9-21,88.7,74.1,61.6,60.9,56.6,52.6,78,56,34,29.98,29.84,16,5,16,0.00
2013-9-22,84.8,73.6,63.4,62.0,55.7,49.8,76,55,38,29.84,29.76,19,5,19,0.00
2013-9-23,92.2,65.5,54.2,56.3,47.4,41.5,75,54,26,29.98,29.84,8,3,8,0.00
2013-9-24,92.3,72.6,56.9,50.7,43.2,34.6,56,37,19,30.04,29.92,15,4,15,0.00
2013-9-25,90.2,72.6,57.6,44.7,38.1,30.6,47,31,17,29.93,29.81,18,4,18,0.00
2013-9-26,85.9,72.1,58.0,52.9,40.3,30.2,56,33,21,29.86,29.79,24,5,24,0.00
2013-9-27,78.1,68.2,56.5,54.5,45.5,38.5,72,45,30,29.98,29.79,21,6,21,0.00
2013-9-28,90.2,66.6,52.9,51.0,41.3,33.8,56,41,25,30.07,29.97,16,3,16,0.00
2013-9-29,93.4,69.8,54.7,50.6,43.2,36.3,61,41,16,30.11,30.00,10,3,10,0.00
2013-9-30,89.3,66.4,53.5,42.6,35.4,30.3,51,35,13,30.04,29.92,11,3,14,0.00
2013-10-1,90.4,70.2,54.2,39.1,35.6,30.9,43,30,16,30.02,29.94,12,3,12,0.00
2013-10-2,92.9,69.3,54.7,47.1,38.1,30.8,54,35,15,30.02,29.90,16,4,16,0.00
2013-10-3,91.3,70.3,51.7,47.3,38.7,31.2,61,35,15,29.94,29.83,18,4,18,0.00
2013-10-4,85.9,68.6,51.8,49.9,37.3,21.9,67,37,12,30.01,29.87,19,4,19,0.00
2013-10-5,84.1,63.8,49.1,34.4,27.0,17.5,45,27,13,30.09,30.00,12,4,12,0.00
2013-10-6,93.1,65.7,49.7,29.2,23.2,19.4,33,21,8,30.13,30.05,16,4,16,0.00
2013-10-7,88.2,70.4,55.4,34.2,28.1,19.6,33,22,12,30.10,29.97,14,6,14,0.00
2013-10-8,89.5,69.7,53.8,40.8,32.8,25.0,47,28,12,29.97,29.87,20,4,20,0.00
2013-10-9,80.5,68.9,58.1,45.5,36.8,30.3,45,32,17,29.89,29.81,34,12,34,0.00
2013-10-10,76.3,63.4,48.6,45.5,37.7,31.7,64,40,23,29.94,29.76,44,12,47,0.00
2013-10-11,87.5,58.9,42.1,43.9,36.2,28.1,78,48,16,29.97,29.89,10,2,10,0.00
2013-10-12,86.8,64.9,45.7,41.4,35.0,24.3,65,37,13,29.97,29.89,20,6,20,0.00
2013-10-13,87.5,71.1,57.1,47.2,41.2,34.7,51,36,19,30.01,29.94,23,7,23,0.00
2013-10-14,78.1,66.8,56.7,52.8,47.0,40.2,74,50,33,30.04,29.95,19,4,19,0.00
2013-10-15,83.9,65.1,50.6,49.2,40.7,29.4,71,44,23,29.97,29.87,16,3,16,0.00
2013-10-16,79.6,59.2,43.6,33.0,22.3,10.7,53,28,7,30.06,29.96,15,4,15,0.00
2013-10-17,83.3,58.7,43.0,24.9,17.7,12.9,35,22,8,30.04,29.90,11,2,11,0.00
2013-10-18,82.3,58.3,42.1,26.0,19.5,15.0,36,24,11,30.01,29.93,13,3,13,0.00
2013-10-19,87.5,61.5,45.9,27.0,20.0,15.9,36,22,10,30.05,29.95,10,3,10,0.00
2013-10-20,78.1,61.1,46.4,23.8,16.5,10.7,32,19,5,29.99,29.88,16,4,16,0.00
2013-10-21,81.0,61.8,46.1,24.3,15.8,10.8,29,18,6,30.03,29.94,12,3,12,0.00
2013-10-22,86.4,63.9,45.7,26.3,20.1,14.0,35,20,9,30.07,29.98,14,4,14,0.00
2013-10-23,85.3,67.5,54.2,36.3,29.3,23.6,34,25,16,30.02,29.93,15,5,15,0.00
2013-10-24,85.0,66.9,51.5,40.8,31.4,25.2,43,29,12,30.02,29.93,21,5,22,0.00
2013-10-25,81.7,63.8,49.5,34.3,27.6,19.4,42,28,11,30.08,30.00,12,3,12,0.00
2013-10-26,80.6,63.1,49.5,32.5,25.8,20.1,39,26,13,30.11,30.03,11,3,11,0.00
2013-10-27,83.9,67.3,56.5,36.9,28.1,17.5,38,25,10,30.07,29.87,16,6,16,0.00
2013-10-28,76.5,64.8,47.5,33.3,27.0,18.3,44,26,12,29.94,29.85,29,10,29,0.00
2013-10-29,75.2,64.3,53.3,38.0,28.7,22.6,45,27,16,29.96,29.86,27,9,30,0.00
2013-10-30,70.0,59.3,41.8,41.0,33.4,24.4,58,39,21,29.99,29.87,27,9,27,0.00
2013-10-31,72.7,51.7,37.4,33.8,23.6,10.4,63,38,8,30.05,29.96,8,2,8,0.00
2013-11-1,76.0,54.5,38.7,24.2,16.0,10.5,38,24,10,30.11,30.01,10,3,10,0.00
2013-11-2,80.1,63.7,51.5,38.8,18.7,13.6,42,19,10,30.06,29.92,16,6,16,0.00
2013-11-3,73.8,62.1,49.5,49.7,42.3,37.2,75,50,33,29.94,29.81,26,5,26,0.02
2013-11-4,73.6,60.1,45.7,46.0,40.4,37.4,75,51,30,29.85,29.75,20,5,20,0.00
2013-11-5,69.5,57.4,47.5,42.0,35.8,29.0,62,46,23,30.08,29.82,20,5,20,0.00
2013-11-6,68.8,54.3,40.9,36.4,28.7,20.1,71,41,18,30.18,30.07,10,4,10,0.00
2013-11-7,73.4,58.4,45.0,35.4,26.6,20.3,41,30,22,30.20,30.06,16,6,16,0.00
2013-11-8,75.2,59.7,45.7,40.1,33.5,28.9,57,39,24,30.08,29.97,12,4,12,0.00
2013-11-9,75.8,59.8,47.5,41.0,34.1,29.5,55,40,24,30.09,30.02,11,3,11,0.00
2013-11-10,78.7,61.4,47.9,39.1,33.9,30.4,54,38,21,30.12,30.02,13,3,13,0.00
2013-11-11,79.6,62.4,48.6,41.3,35.8,30.4,61,39,23,30.10,30.01,18,3,18,0.00
2013-11-12,75.1,63.8,53.6,47.6,41.9,35.9,55,45,37,30.20,30.09,19,8,20,0.00
2013-11-13,69.8,58.8,50.8,44.7,41.3,38.3,68,53,40,30.20,30.02,18,7,18,0.00
2013-11-14,76.1,58.4,44.5,45.5,35.4,23.2,76,47,15,30.04,29.90,20,4,20,0.00
2013-11-15,70.9,60.5,49.9,49.6,43.7,34.2,71,55,35,29.89,29.66,47,15,47,0.01
2013-11-16,69.1,60.2,52.4,45.5,40.5,36.4,60,49,34,29.89,29.69,33,8,40,0.00
2013-11-17,70.9,57.0,42.7,43.7,39.7,35.3,78,55,32,30.03,29.88,12,3,13,0.00
2013-11-18,72.4,59.2,47.2,50.8,40.1,29.5,79,52,22,30.06,29.96,15,4,15,0.00
2013-11-19,75.1,57.1,43.6,43.8,34.0,24.3,66,46,16,30.01,29.86,11,3,11,0.00
2013-11-20,72.9,62.1,55.1,33.8,30.6,27.2,40,31,21,29.89,29.82,16,5,16,0.00
2013-11-21,71.5,60.4,50.0,46.8,42.0,29.5,64,51,37,29.94,29.86,19,8,19,0.00
2013-11-22,61.6,57.2,48.1,50.2,45.8,38.0,83,66,53,29.91,29.81,37,16,37,0.32
2013-11-23,48.8,44.5,41.2,43.0,38.7,36.1,84,80,69,29.99,29.88,21,9,21,0.40
2013-11-24,55.6,45.3,38.9,41.8,36.9,32.9,83,73,55,30.04,29.97,11,4,12,0.01
2013-11-25,53.8,42.3,31.3,37.0,32.3,26.8,89,69,45,30.11,29.99,11,3,13,0.00
2013-11-26,56.2,46.8,36.7,33.8,29.7,22.5,77,53,39,30.18,30.09,17,8,17,0.00
2013-11-27,56.5,47.9,42.1,27.4,24.1,21.9,47,39,31,30.12,29.97,17,9,17,0.00
2013-11-28,67.0,51.7,38.9,36.1,29.5,22.0,52,43,30,30.06,29.95,16,6,16,0.00
2013-11-29,70.2,57.0,45.7,43.9,36.5,32.0,63,48,25,30.12,30.03,18,5,18,0.00
2013-11-30,70.0,55.4,44.8,42.6,36.5,31.1,68,51,28,30.12,30.03,8,2,8,0.00
2013-12-1,65.2,56.2,48.1,40.1,35.3,31.3,55,46,38,30.14,30.06,7,2,7,0.00
2013-12-2,70.2,53.0,41.8,38.0,28.5,18.3,66,42,15,30.10,29.89,8,2,8,0.00
2013-12-3,69.5,54.3,38.0,42.4,28.5,14.6,58,39,15,29.89,29.75,25,6,25,0.00
2013-12-4,63.0,55.9,50.4,43.4,32.7,21.6,69,44,21,29.81,29.73,38,15,49,0.00
2013-12-5,50.9,46.0,34.6,42.3,35.6,28.4,81,68,45,29.94,29.77,30,7,30,0.06
2013-12-6,51.7,37.4,27.0,30.7,25.2,21.3,81,63,32,30.02,29.92,13,2,13,0.01
2013-12-7,58.7,42.3,27.0,28.6,18.6,6.1,78,46,15,29.95,29.85,23,4,23,0.00
2013-12-8,55.6,42.4,28.8,30.5,25.0,16.5,71,51,32,30.00,29.89,10,2,10,0.00
2013-12-9,52.9,39.2,30.2,32.9,24.2,14.5,83,58,22,30.15,29.93,11,3,11,0.00
2013-12-10,58.0,43.2,27.5,25.7,20.1,14.7,62,41,24,30.13,30.00,16,4,16,0.00
2013-12-11,63.9,50.1,36.4,39.3,29.2,19.4,58,45,36,30.14,30.02,15,6,15,0.00
2013-12-12,61.7,51.2,42.1,45.2,34.5,23.3,71,54,36,30.14,29.99,19,7,19,0.00
2013-12-13,57.4,44.7,33.3,35.7,30.0,26.1,80,59,32,30.06,29.98,14,3,14,0.00
2013-12-14,58.3,48.4,35.5,29.3,24.5,20.4,63,41,24,30.18,30.05,14,4,14,0.00
2013-12-15,61.9,46.1,31.9,26.1,20.1,14.4,57,38,20,30.19,30.10,14,3,14,0.00
2013-12-16,68.8,51.2,37.1,25.9,20.3,13.3,47,31,17,30.18,30.11,10,3,10,0.00
2013-12-17,70.9,53.9,39.2,27.0,21.4,17.5,45,30,16,30.19,30.08,12,4,12,0.00
2013-12-18,68.9,56.0,46.1,28.1,21.5,17.7,37,27,16,30.08,29.85,17,4,17,0.00
2013-12-19,62.6,55.1,47.9,25.7,20.1,9.6,37,26,15,29.85,29.68,33,12,33,0.00
2013-12-20,50.8,44.7,38.0,40.0,31.9,20.8,81,62,31,29.75,29.58,33,7,33,0.13
2013-12-21,48.6,42.3,35.3,34.3,31.1,27.7,77,65,48,29.92,29.71,22,6,22,0.00
2013-12-22,52.7,44.7,31.5,36.0,28.9,23.9,81,55,36,30.15,29.92,8,3,8,0.00
2013-12-23,56.9,39.2,31.5,30.3,23.7,19.8,75,55,30,30.23,30.13,10,3,10,0.00
2013-12-24,60.7,45.0,30.6,29.4,24.2,18.7,66,45,27,30.16,30.04,12,4,12,0.00
2013-12-25,60.1,47.6,37.4,29.5,24.8,21.3,55,42,27,30.16,30.06,15,5,15,0.00
2013-12-26,56.9,42.9,34.7,28.4,23.2,18.7,60,46,29,30.15,30.06,14,5,14,0.00
2013-12-27,58.1,44.5,32.8,28.5,22.2,17.8,56,42,28,30.15,30.04,13,5,13,0.00
2013-12-28,61.2,46.4,34.9,31.1,23.9,18.8,64,43,21,30.07,29.90,13,3,13,0.00
2013-12-29,59.4,47.9,37.8,28.6,23.0,18.7,51,39,22,30.06,29.88,9,3,9,0.00
2013-12-30,60.1,46.3,36.4,27.7,20.5,12.9,54,38,19,30.16,30.03,8,4,8,0.00
2013-12-31,62.6,50.1,37.8,23.9,19.9,15.4,45,31,19,30.15,30.02,13,4,13,0.00
2014-1-1,65.9,47.8,36.7,22.9,18.5,15.9,45,33,16,30.08,30.00,10,3,10,0.00
2014-1-2,64.4,52.0,40.3,24.8,21.9,18.8,45,32,21,30.14,30.02,15,6,15,0.00